Latest Weather Observations for Yulara

IDD60801

Issued at 8:01 am CST Sunday 1 February 2015 (issued every 30 minutes, with the page automatically refreshed every 10 minutes)

About weather observations | Map of weather stations | Latest weather observations for NT | Other Formats
Station Details ID: 015635 Name: YULARA AIRPORT Lat: -25.19 Lon: 130.97 Height: 492.0 m
Data from the previous 72 hours. | See also: Recent months at Yulara
Date/Time
CST
Temp
°C
App
Temp
°C
Dew
Point
Rel
Hum
%
Delta-T
°C
Wind Press
QNH
hPa
Press
MSL
hPa
Rain
since 9 am
mm
Dir
 
Spd
km/h
Gust
km/h
Spd
kts
Gust
kts
01/08:00am 28.9 25.1 3.7 20 13.0 ESE 13 20 7 11 1013.1 1009.1 0.0
01/07:30am 26.9 23.0 3.4 22 11.9 SSE 13 19 7 10 1012.9 1008.9 0.0
01/07:00am 24.6 20.8 3.8 26 10.5 SSE 13 17 7 9 1012.5 1008.5 0.0
01/06:30am 23.8 20.3 3.7 27 10.1 SSE 11 13 6 7 1011.9 1008.0 0.0
01/06:00am 24.1 20.6 3.4 26 10.3 SSE 11 17 6 9 1011.5 1007.6 0.0
01/05:30am 24.8 21.2 2.9 24 10.9 SE 11 17 6 9 1011.1 1007.1 0.0
01/05:00am 25.9 22.3 3.2 23 11.4 SE 11 15 6 8 1011.0 1007.0 0.0
01/04:30am 26.2 22.2 2.8 22 11.7 SE 13 22 7 12 1010.8 1006.8 0.0
01/04:00am 25.8 21.6 3.7 24 11.2 SSE 15 20 8 11 1010.5 1006.5 0.0
01/03:30am 23.9 20.3 3.2 26 10.3 SSW 11 15 6 8 1010.4 1006.4 0.0
01/03:00am 24.5 20.9 3.2 25 10.6 SSE 11 15 6 8 1010.1 1006.2 0.0
01/02:30am 25.7 22.1 3.0 23 11.4 SE 11 15 6 8 1010.0 1006.1 0.0
01/02:00am 26.6 22.7 3.2 22 11.8 SE 13 15 7 8 1010.0 1006.1 0.0
01/01:30am 26.5 23.9 3.1 22 11.8 ESE 6 7 3 4 1010.0 1006.1 0.0
01/01:00am 27.9 25.1 2.9 20 12.7 E 7 9 4 5 1010.1 1006.2 0.0
01/12:30am 29.1 26.2 2.4 18 13.5 ESE 7 11 4 6 1010.2 1006.3 0.0
01/12:00am 28.4 26.6 3.3 20 12.9 ESE 2 9 1 5 1010.6 1006.6 0.0
 
Date/Time
CST
Temp
°C
App
Temp
°C
Dew
Point
Rel
Hum
%
Delta-T
°C
Wind Press
QNH
hPa
Press
MSL
hPa
Rain
since 9 am
mm
Dir
 
Spd
km/h
Gust
km/h
Spd
kts
Gust
kts
31/11:30pm 30.1 27.4 2.4 17 14.1 SE 6 9 3 5 1010.7 1006.7 0.0
31/11:00pm 29.2 27.7 3.2 19 13.4 CALM 0 0 0 0 1010.7 1006.7 0.0
31/10:30pm 30.6 28.9 1.9 16 14.6 CALM 0 0 0 0 1010.6 1006.6 0.0
31/10:00pm 30.9 29.1 1.3 15 14.9 CALM 0 0 0 0 1010.6 1006.6 0.0
31/09:30pm 33.4 30.7 0.1 12 16.7 E 4 9 2 5 1010.5 1006.5 0.0
31/09:00pm 34.1 30.9 0.7 12 17.0 E 7 11 4 6 1010.5 1006.5 0.0
31/08:30pm 34.7 31.4 -0.1 11 17.5 ESE 7 9 4 5 1010.0 1006.1 0.0
31/08:00pm 35.6 32.4 0.6 11 17.9 E 7 9 4 5 1009.8 1005.9 0.0
31/07:30pm 36.1 32.4 -0.3 10 18.4 ENE 9 13 5 7 1009.6 1005.7 0.0
31/07:00pm 36.8 32.8 0.2 10 18.7 E 11 15 6 8 1009.4 1005.4 0.0
31/06:30pm 36.9 31.5 -1.1 9 19.1 SE 17 22 9 12 1009.1 1005.1 0.0
31/06:00pm 37.1 32.5 -1.0 9 19.2 ESE 13 20 7 11 1008.9 1004.9 0.0
31/05:30pm 37.3 33.9 -0.9 9 19.3 ESE 7 19 4 10 1008.7 1004.7 0.0
31/05:00pm 37.8 32.1 -0.5 9 19.5 ESE 19 30 10 16 1008.6 1004.6 0.0
31/04:30pm 37.9 33.4 -0.4 9 19.6 SSW 13 24 7 13 1008.6 1004.6 0.0
31/04:00pm 38.0 31.4 -0.3 9 19.6 S 24 35 13 19 1008.8 1004.8 0.0
31/03:30pm 37.5 31.6 -0.7 9 19.4 S 20 33 11 18 1009.0 1005.0 0.0
31/03:07pm 38.4 32.6 -1.6 8 20.1 S 19 41 10 22 1008.9 1004.9 0.0
31/03:00pm 38.7 34.3 0.2 9 20.0 SSE 13 26 7 14 1009.1 1005.1 0.0
31/02:30pm 38.3 33.5 -0.1 9 19.8 E 15 28 8 15 1009.5 1005.6 0.0
31/02:00pm 38.4 35.1 0.0 9 19.8 E 7 15 4 8 1009.9 1006.0 0.0
31/01:30pm 38.0 33.5 -0.3 9 19.6 NNE 13 24 7 13 1010.2 1006.3 0.0
31/01:00pm 37.1 31.9 0.4 10 18.9 NNW 17 26 9 14 1010.6 1006.6 0.0
31/12:30pm 36.3 32.0 1.2 11 18.2 N 13 22 7 12 1011.0 1007.0 0.0
31/12:00pm 36.2 33.2 1.1 11 18.2 SSW 6 13 3 7 1011.4 1007.5 0.0
31/11:30am 35.7 31.9 1.9 12 17.7 NNW 11 20 6 11 1011.9 1008.0 0.0
31/11:00am 34.6 31.0 3.2 14 16.6 NNE 11 19 6 10 1012.0 1008.1 0.0
31/10:30am 34.0 29.2 2.8 14 16.4 NNE 17 24 9 13 1012.2 1008.3 0.0
31/10:00am 32.4 28.9 3.4 16 15.2 NE 11 17 6 9 1012.3 1008.4 0.0
31/09:30am 31.5 27.5 2.7 16 14.9 NNE 13 19 7 10 1012.3 1008.4 0.0
31/09:00am 29.9 27.1 2.2 17 14.1 E 6 9 3 5 1012.2 1008.3 0.0
31/08:30am 29.0 25.5 1.5 17 13.7 ESE 9 15 5 8 1011.9 1008.0 0.0
31/08:00am 26.2 22.1 0.0 18 12.5 SE 11 15 6 8 1011.7 1007.8 0.0
31/07:30am 24.2 20.6 0.5 21 11.2 SSE 9 13 5 7 1011.5 1007.6 0.0
31/07:00am 22.0 19.1 1.6 26 9.7 SSE 6 7 3 4 1011.3 1007.3 0.0
31/06:30am 21.5 18.0 1.2 26 9.6 S 9 13 5 7 1011.2 1007.2 0.0
31/06:00am 21.4 17.9 1.1 26 9.5 S 9 11 5 6 1010.9 1006.9 0.0
31/05:30am 20.6 17.0 0.4 26 9.3 S 9 11 5 6 1010.6 1006.6 0.0
31/05:00am 20.5 17.2 -0.2 25 9.4 S 7 9 4 5 1010.6 1006.6 0.0
31/04:30am 20.5 17.2 -0.2 25 9.4 S 7 9 4 5 1010.2 1006.3 0.0
31/04:00am 20.8 17.6 -0.5 24 9.6 S 6 11 3 6 1010.0 1006.1 0.0
31/03:30am 21.4 17.6 -0.6 23 10.0 SSE 9 11 5 6 1010.0 1006.1 0.0
31/03:00am 20.8 17.9 -1.1 23 9.8 S 4 9 2 5 1009.9 1006.0 0.0
31/02:30am 21.5 18.6 -1.1 22 10.2 SSE 4 11 2 6 1010.0 1006.1 0.0
31/02:00am 23.4 19.6 -0.8 20 11.1 SE 9 13 5 7 1010.1 1006.2 0.0
31/01:30am 24.3 20.4 -1.5 18 11.8 ESE 9 13 5 7 1010.0 1006.1 0.0
31/01:00am 25.4 21.0 -2.2 16 12.5 ESE 11 13 6 7 1010.0 1006.1 0.0
31/12:30am 26.9 22.9 -1.9 15 13.3 ESE 9 11 5 6 1010.4 1006.4 0.0
31/12:00am 27.7 23.3 -2.2 14 13.9 ESE 11 13 6 7 1010.6 1006.6 0.0
 
Date/Time
CST
Temp
°C
App
Temp
°C
Dew
Point
Rel
Hum
%
Delta-T
°C
Wind Press
QNH
hPa
Press
MSL
hPa
Rain
since 9 am
mm
Dir
 
Spd
km/h
Gust
km/h
Spd
kts
Gust
kts
30/11:30pm 28.2 24.3 -1.8 14 14.1 ESE 9 13 5 7 1010.7 1006.7 0.0
30/11:00pm 28.4 24.5 -1.6 14 14.1 ESE 9 9 5 5 1010.6 1006.6 0.0
30/10:30pm 29.1 25.1 -2.1 13 14.6 ESE 9 11 5 6 1010.6 1006.6 0.0
30/10:00pm 30.4 25.5 -3.3 11 15.6 ESE 13 15 7 8 1010.2 1006.3 0.0
30/09:30pm 31.4 26.1 -3.8 10 16.3 ESE 15 19 8 10 1009.9 1006.0 0.0
30/09:00pm 31.5 26.9 -3.8 10 16.4 ESE 11 17 6 9 1009.5 1005.6 0.0
30/08:30pm 31.3 27.5 -3.9 10 16.3 ESE 7 11 4 6 1009.3 1005.3 0.0
30/08:00pm 33.7 29.4 -5.1 8 17.9 ESE 9 15 5 8 1009.0 1005.0 0.0
30/07:30pm 34.9 29.9 -4.2 8 18.5 ESE 13 20 7 11 1008.8 1004.8 0.0
30/07:00pm 35.8 30.9 -3.5 8 18.9 SSE 13 24 7 13 1008.5 1004.5 0.0
30/06:30pm 36.0 30.0 -3.4 8 19.0 SSE 19 30 10 16 1008.3 1004.3 0.0
30/06:00pm 36.3 31.8 -3.2 8 19.2 SSW 11 22 6 12 1008.2 1004.2 0.0
30/05:30pm 36.9 30.5 -4.5 7 19.7 SE 20 33 11 18 1008.2 1004.2 0.0
30/05:00pm 36.6 30.2 -4.7 7 19.5 SSE 20 48 11 26 1008.4 1004.4 0.0
30/04:30pm 36.5 30.9 -3.0 8 19.2 S 17 39 9 21 1008.7 1004.7 0.0
30/04:00pm 36.5 29.9 -3.0 8 19.2 SSE 22 37 12 20 1009.0 1005.0 0.0
30/03:30pm 35.9 30.2 -3.5 8 19.0 SSE 17 32 9 17 1009.3 1005.3 0.0
30/03:00pm 36.5 31.3 -3.0 8 19.2 SSW 15 30 8 16 1009.5 1005.6 0.0
30/02:30pm 36.0 29.8 -3.4 8 19.0 S 20 32 11 17 1010.1 1006.2 0.0
30/02:00pm 36.1 30.8 -3.3 8 19.0 SE 15 26 8 14 1010.6 1006.6 0.0
30/01:30pm 35.7 31.4 -2.0 9 18.5 SSW 11 28 6 15 1011.2 1007.2 0.0
30/01:00pm 34.6 29.0 -2.9 9 18.0 ESE 17 30 9 16 1011.8 1007.9 0.0
30/12:30pm 33.7 29.7 -2.1 10 17.3 NE 9 22 5 12 1012.2 1008.3 0.0
30/12:00pm 33.7 27.6 -2.1 10 17.3 ENE 20 32 11 17 1012.7 1008.7 0.0
30/11:30am 33.5 27.6 -2.3 10 17.2 NE 19 35 10 19 1013.1 1009.1 0.0
30/11:00am 33.2 27.3 -2.5 10 17.1 ENE 19 37 10 20 1013.3 1009.4 0.0
30/10:30am 31.7 26.9 -2.3 11 16.2 NNE 13 20 7 11 1013.3 1009.4 0.0
30/10:00am 30.5 25.3 0.0 14 15.0 ENE 17 24 9 13 1013.4 1009.5 0.0
30/09:30am 30.5 26.2 1.0 15 14.7 E 13 20 7 11 1013.5 1009.6 0.0
30/09:00am 28.7 24.4 1.3 17 13.6 ENE 13 19 7 10 1013.6 1009.7 0.0
30/08:30am 26.8 23.2 0.5 18 12.7 E 9 17 5 9 1013.5 1009.6 0.0
30/08:00am 24.2 21.0 0.5 21 11.2 SE 7 9 4 5 1013.3 1009.4 0.0
30/07:30am 20.9 17.5 1.7 28 9.1 S 9 11 5 6 1013.3 1009.4 0.0
30/07:00am 17.9 14.0 1.0 32 7.7 SSW 11 13 6 7 1012.9 1008.9 0.0
30/06:30am 17.3 13.6 0.0 31 7.7 S 9 15 5 8 1012.3 1008.4 0.0
30/06:00am 16.5 12.8 0.2 33 7.2 SSE 9 11 5 6 1011.9 1008.0 0.0
30/05:30am 15.2 12.8 -0.5 34 6.8 SSE 2 7 1 4 1011.5 1007.6 0.0
30/05:00am 17.2 13.9 -0.1 31 7.6 SSE 7 9 4 5 1011.2 1007.2 0.0
30/04:30am 16.9 13.7 -0.8 30 7.7 SSE 6 7 3 4 1011.0 1007.0 0.0
30/04:00am 16.2 13.0 -0.5 32 7.3 SSE 6 6 3 3 1011.0 1007.0 0.0
30/03:30am 17.5 14.1 -0.7 29 8.0 SSE 7 7 4 4 1011.0 1007.0 0.0
30/03:00am 17.5 14.2 -1.2 28 8.1 SSE 6 6 3 3 1011.0 1007.0 0.0
30/02:30am 18.2 16.1 -1.1 27 8.4 CALM 0 0 0 0 1011.2 1007.2 0.0
30/02:00am 18.4 16.3 -0.9 27 8.5 CALM 0 0 0 0 1011.4 1007.5 0.0
30/01:30am 18.6 16.4 -1.3 26 8.7 CALM 0 6 0 3 1011.5 1007.6 0.0
30/01:00am 19.8 16.6 -0.8 25 9.2 SE 6 7 3 4 1011.7 1007.8 0.0
30/12:30am 20.1 16.8 -1.1 24 9.4 SE 6 9 3 5 1011.9 1008.0 0.0
30/12:00am 21.8 18.3 -1.5 21 10.4 ESE 7 9 4 5 1012.0 1008.1 0.0
 
Date/Time
CST
Temp
°C
App
Temp
°C
Dew
Point
Rel
Hum
%
Delta-T
°C
Wind Press
QNH
hPa
Press
MSL
hPa
Rain
since 9 am
mm
Dir
 
Spd
km/h
Gust
km/h
Spd
kts
Gust
kts
29/11:30pm 24.6 21.0 -2.0 17 12.1 ESE 7 9 4 5 1012.2 1008.3 0.0
29/11:00pm 26.5 22.9 -2.2 15 13.2 E 7 11 4 6 1012.0 1008.1 0.0
29/10:30pm 27.1 23.0 -2.7 14 13.6 ESE 9 13 5 7 1011.5 1007.6 0.0
29/10:00pm 27.6 23.5 -3.3 13 14.0 ESE 9 11 5 6 1011.2 1007.2 0.0
29/09:30pm 29.0 24.9 -3.2 12 14.8 E 9 13 5 7 1011.0 1007.0 0.0
29/09:00pm 29.9 25.7 -3.7 11 15.4 E 9 11 5 6 1010.8 1006.8 0.0
29/08:30pm 30.6 26.3 -4.5 10 16.0 E 9 13 5 7 1010.5 1006.5 0.0
29/08:00pm 31.6 27.0 -3.7 10 16.4 E 11 13 6 7 1010.2 1006.3 0.0
29/07:30pm 33.2 27.5 -3.9 9 17.4 E 17 22 9 12 1010.0 1006.1 0.0
29/07:00pm 34.0 27.6 -4.9 8 18.0 E 20 30 11 16 1009.8 1005.9 0.0
29/06:30pm 34.1 28.7 -4.8 8 18.1 ESE 15 24 8 13 1009.5 1005.6 0.0
29/06:00pm 34.5 28.3 -4.5 8 18.3 SSE 19 32 10 17 1009.5 1005.6 0.0
29/05:30pm 35.2 29.9 -4.0 8 18.6 E 15 26 8 14 1009.5 1005.6 0.0
29/05:00pm 34.9 29.1 -4.2 8 18.4 E 17 28 9 15 1009.5 1005.6 0.0
29/04:30pm 34.2 28.4 -4.7 8 18.1 SE 17 30 9 16 1009.8 1005.9 0.0
29/04:00pm 34.7 28.5 -4.4 8 18.3 E 19 32 10 17 1010.0 1006.1 0.0
29/03:30pm 33.4 28.1 -3.7 9 17.5 S 15 28 8 15 1010.4 1006.4 0.0
29/03:00pm 34.1 30.0 -3.2 9 17.8 SE 9 19 5 10 1010.6 1006.6 0.0
29/02:30pm 34.3 29.6 -1.7 10 17.6 ESE 13 32 7 17 1010.9 1006.9 0.0
29/02:00pm 33.3 27.8 -2.4 10 17.1 SSE 17 24 9 13 1011.5 1007.6 0.0
29/01:30pm 32.2 28.0 -0.8 12 16.2 SSE 11 19 6 10 1011.5 1007.6 0.0
29/01:00pm 32.5 27.2 -0.5 12 16.3 SE 17 33 9 18 1012.0 1008.1 0.0
29/12:30pm 32.6 29.0 0.6 13 16.1 ENE 9 39 5 21 1012.3 1008.4 0.0
29/12:00pm 30.6 26.3 1.0 15 14.8 ENE 13 33 7 18 1013.2 1009.3 0.0
29/11:30am 30.8 25.2 1.2 15 14.8 E 20 43 11 23 1013.5 1009.6 0.0
29/11:00am 29.8 24.2 1.3 16 14.2 E 20 32 11 17 1013.6 1009.7 0.0
29/10:30am 29.9 24.5 2.2 17 14.1 ENE 20 41 11 22 1013.9 1010.0 0.0
29/10:00am 28.6 23.2 2.7 19 13.1 ENE 20 30 11 16 1014.0 1010.1 0.0
29/09:30am 27.9 22.6 2.9 20 12.7 ENE 20 30 11 16 1014.0 1010.1 0.0
29/09:00am 26.8 21.1 2.7 21 12.1 ENE 22 33 12 18 1013.9 1010.0 0.0
29/08:30am 25.5 20.4 2.9 23 11.3 E 19 24 10 13 1013.8 1009.9 0.0

Other Formats:

Comma delimited format used in spreadsheet applications
http://www.bom.gov.au/fwo/IDD60801/IDD60801.94462.axf

JavaScript Object Notation format (JSON) in row-major order
http://www.bom.gov.au/fwo/IDD60801/IDD60801.94462.json